createdAt,value
2023-03-22T00:01:24.163Z,1.65
2023-03-22T00:03:52.518Z,1.90
2023-03-22T00:06:19.866Z,1.67
2023-03-22T00:08:50.688Z,1.90
2023-03-22T00:11:19.471Z,1.70
2023-03-22T00:13:47.094Z,1.55
2023-03-22T00:16:15.214Z,1.27
2023-03-22T00:18:42.501Z,2.10
2023-03-22T00:21:14.912Z,2.22
2023-03-22T00:23:42.718Z,1.83
2023-03-22T00:26:11.022Z,2.40
2023-03-22T00:28:38.248Z,2.17
2023-03-22T00:31:06.355Z,1.80
2023-03-22T00:33:36.292Z,1.95
2023-03-22T00:36:08.854Z,2.10
2023-03-22T00:38:44.112Z,2.10
2023-03-22T00:41:16.236Z,1.80
2023-03-22T00:43:43.952Z,2.10
2023-03-22T00:46:12.207Z,2.00
2023-03-22T00:48:39.387Z,2.63
2023-03-22T00:51:07.160Z,2.15
2023-03-22T00:53:36.383Z,2.55
2023-03-22T00:56:05.540Z,2.33
2023-03-22T00:58:32.980Z,1.90
2023-03-22T01:01:01.006Z,1.70
2023-03-22T01:03:28.179Z,1.95
2023-03-22T01:05:57.840Z,2.00
2023-03-22T01:08:25.390Z,1.90
2023-03-22T01:10:52.496Z,1.85
2023-03-22T01:13:19.602Z,2.58
2023-03-22T01:15:50.843Z,2.47
2023-03-22T01:18:18.527Z,2.42
2023-03-22T01:20:45.597Z,2.67
2023-03-22T01:23:12.655Z,2.30
2023-03-22T01:25:39.825Z,2.70
2023-03-22T01:28:07.740Z,2.38
2023-03-22T01:30:34.878Z,1.92
2023-03-22T01:33:02.208Z,1.85
2023-03-22T01:35:30.890Z,1.95
2023-03-22T01:37:57.926Z,1.45
2023-03-22T01:40:27.120Z,2.00
2023-03-22T01:42:55.218Z,1.95
2023-03-22T01:45:36.873Z,2.05
2023-03-22T01:48:29.636Z,1.98
2023-03-22T01:51:25.135Z,2.22
2023-03-22T01:54:07.018Z,2.28
2023-03-22T01:56:37.022Z,1.85
2023-03-22T01:59:04.890Z,2.38
2023-03-22T02:01:34.131Z,2.25
2023-03-22T02:04:15.537Z,2.13
2023-03-22T02:06:42.837Z,1.60
2023-03-22T02:09:12.474Z,2.22
2023-03-22T02:11:48.814Z,2.45
2023-03-22T02:14:43.268Z,1.88
2023-03-22T02:17:37.960Z,1.95
2023-03-22T02:20:42.201Z,1.98
2023-03-22T02:23:21.151Z,2.30
2023-03-22T02:26:06.941Z,1.98
2023-03-22T02:28:43.126Z,2.35
2023-03-22T02:31:37.724Z,2.60
2023-03-22T02:34:51.119Z,2.47
2023-03-22T02:37:45.891Z,2.25
2023-03-22T02:40:44.361Z,2.05
2023-03-22T02:43:17.069Z,3.30
2023-03-22T02:46:05.975Z,3.28
2023-03-22T02:48:51.358Z,3.00
2023-03-22T02:51:25.703Z,3.65
2023-03-22T02:53:57.894Z,3.97
2023-03-22T02:56:31.782Z,4.03
2023-03-22T02:59:04.088Z,4.70
2023-03-22T03:01:40.738Z,4.32
2023-03-22T03:04:15.965Z,5.93
2023-03-22T03:06:47.095Z,5.82
2023-03-22T03:09:20.687Z,5.38
2023-03-22T03:11:50.698Z,5.43
2023-03-22T03:14:21.245Z,6.80
2023-03-22T03:17:13.138Z,5.78
2023-03-22T03:19:46.335Z,6.55
2023-03-22T03:22:19.153Z,6.65
2023-03-22T03:24:56.972Z,7.23
2023-03-22T03:27:32.370Z,7.88
2023-03-22T03:30:06.673Z,7.00
2023-03-22T03:32:41.974Z,7.18
2023-03-22T03:35:22.526Z,7.22
2023-03-22T03:37:54.859Z,7.03
2023-03-22T03:40:33.652Z,7.20
2023-03-22T03:43:04.460Z,7.95
2023-03-22T03:45:32.538Z,7.30
2023-03-22T03:48:03.297Z,8.38
2023-03-22T03:50:31.519Z,9.02
2023-03-22T03:52:58.630Z,8.20
2023-03-22T03:55:27.453Z,9.15
2023-03-22T03:57:54.664Z,9.05
2023-03-22T04:00:21.719Z,8.43
2023-03-22T04:02:48.791Z,8.60
2023-03-22T04:05:15.955Z,9.13
2023-03-22T04:07:42.992Z,9.20
2023-03-22T04:10:10.236Z,9.30
2023-03-22T04:12:37.393Z,9.48
2023-03-22T04:15:04.799Z,8.82
2023-03-22T04:17:32.114Z,8.60
2023-03-22T04:19:59.686Z,8.98
2023-03-22T04:22:26.811Z,8.18
2023-03-22T04:24:53.920Z,9.25
2023-03-22T04:27:22.349Z,8.95
2023-03-22T04:29:50.805Z,7.65
2023-03-22T04:32:23.016Z,9.40
2023-03-22T04:34:51.339Z,9.15
2023-03-22T04:37:19.501Z,8.90
2023-03-22T04:39:46.623Z,7.55
2023-03-22T04:42:13.766Z,7.72
2023-03-22T04:44:40.952Z,8.98
2023-03-22T04:47:08.021Z,7.95
2023-03-22T04:49:35.218Z,8.20
2023-03-22T04:52:02.325Z,7.32
2023-03-22T04:54:29.879Z,7.68
2023-03-22T04:56:56.865Z,7.40
2023-03-22T04:59:24.003Z,8.20
2023-03-22T05:01:51.688Z,6.93
2023-03-22T05:04:19.275Z,7.25
2023-03-22T05:06:46.496Z,6.93
2023-03-22T05:09:14.251Z,6.82
2023-03-22T05:11:41.721Z,7.43
2023-03-22T05:14:10.167Z,6.47
2023-03-22T05:16:40.520Z,7.20
2023-03-22T05:19:13.940Z,7.30
2023-03-22T05:21:44.011Z,6.20
2023-03-22T05:24:11.992Z,6.45
2023-03-22T05:26:42.379Z,7.13
2023-03-22T05:29:10.957Z,6.78
2023-03-22T05:31:38.309Z,6.32
2023-03-22T05:34:05.484Z,6.25
2023-03-22T05:36:32.580Z,6.82
2023-03-22T05:39:00.394Z,6.45
2023-03-22T05:41:27.512Z,6.60
2023-03-22T05:43:55.086Z,5.88
2023-03-22T05:46:22.322Z,6.80
2023-03-22T05:48:49.482Z,5.55
2023-03-22T05:51:20.139Z,5.75
2023-03-22T05:53:48.297Z,5.60
2023-03-22T05:56:15.687Z,6.35
2023-03-22T05:58:42.846Z,5.65
2023-03-22T06:01:16.370Z,5.40
2023-03-22T06:03:43.473Z,5.32
2023-03-22T06:06:10.791Z,6.03
2023-03-22T06:08:39.281Z,5.10
2023-03-22T06:11:07.657Z,4.97
2023-03-22T06:13:34.729Z,5.15
2023-03-22T06:16:03.676Z,5.05
2023-03-22T06:18:31.599Z,5.22
2023-03-22T06:20:59.425Z,5.05
2023-03-22T06:23:26.519Z,5.10
2023-03-22T06:25:54.060Z,4.85
2023-03-22T06:28:21.123Z,5.57
2023-03-22T06:30:48.221Z,4.50
2023-03-22T06:33:15.376Z,4.45
2023-03-22T06:35:42.445Z,4.95
2023-03-22T06:38:09.561Z,4.20
2023-03-22T06:40:36.667Z,3.83
2023-03-22T06:43:06.947Z,5.10
2023-03-22T06:45:35.870Z,4.10
2023-03-22T06:48:03.040Z,3.53
2023-03-22T06:50:31.085Z,4.57
2023-03-22T06:52:58.406Z,4.35
2023-03-22T06:55:26.359Z,3.50
2023-03-22T06:57:53.488Z,3.67
2023-03-22T07:00:20.802Z,4.75
2023-03-22T07:02:47.919Z,4.07
2023-03-22T07:05:15.026Z,3.80
2023-03-22T07:07:42.091Z,4.30
2023-03-22T07:10:09.653Z,3.55
2023-03-22T07:12:36.742Z,3.85
2023-03-22T07:15:04.427Z,3.42
2023-03-22T07:17:31.500Z,3.08
2023-03-22T07:19:59.556Z,2.88
2023-03-22T07:22:27.220Z,3.47
2023-03-22T07:24:57.837Z,2.42
2023-03-22T07:27:26.087Z,2.83
2023-03-22T07:29:53.271Z,2.67
2023-03-22T07:32:20.569Z,3.28
2023-03-22T07:34:47.676Z,3.45
2023-03-22T07:37:15.060Z,2.35
2023-03-22T07:39:42.198Z,2.95
2023-03-22T07:42:09.589Z,3.40
2023-03-22T07:44:36.743Z,2.35
2023-03-22T07:47:04.002Z,2.72
2023-03-22T07:49:31.604Z,2.20
2023-03-22T07:51:59.456Z,2.78
2023-03-22T07:54:33.730Z,2.33
2023-03-22T07:57:01.896Z,2.47
2023-03-22T07:59:29.629Z,2.45
2023-03-22T08:01:56.766Z,2.33
2023-03-22T08:04:23.858Z,1.92
2023-03-22T08:06:51.495Z,2.20
2023-03-22T08:09:18.727Z,2.50
2023-03-22T08:11:46.064Z,2.08
2023-03-22T08:14:13.157Z,1.70
2023-03-22T08:16:41.648Z,2.42
2023-03-22T08:19:08.808Z,2.10
2023-03-22T08:21:36.218Z,2.53
2023-03-22T08:24:04.886Z,2.40
2023-03-22T08:26:32.032Z,2.60
2023-03-22T08:29:00.341Z,2.55
2023-03-22T08:31:27.501Z,2.72
2023-03-22T08:33:54.809Z,2.55
2023-03-22T08:36:25.591Z,2.45
2023-03-22T08:38:53.074Z,2.38
2023-03-22T08:41:20.164Z,2.60
2023-03-22T08:43:47.741Z,2.72
2023-03-22T08:46:14.856Z,2.50
2023-03-22T08:48:42.308Z,3.10
2023-03-22T08:51:09.328Z,2.60
2023-03-22T08:53:36.511Z,2.85
2023-03-22T08:56:07.802Z,2.97
2023-03-22T08:58:35.911Z,2.95
2023-03-22T09:01:03.127Z,2.63
2023-03-22T09:03:30.589Z,3.03
2023-03-22T09:05:57.630Z,2.05
2023-03-22T09:08:24.749Z,2.50
2023-03-22T09:10:52.273Z,2.67
2023-03-22T09:13:20.400Z,3.20
2023-03-22T09:15:48.211Z,2.47
2023-03-22T09:18:16.317Z,2.38
2023-03-22T09:20:44.722Z,3.00
2023-03-22T09:23:13.040Z,2.20
2023-03-22T09:25:43.362Z,2.17
2023-03-22T09:28:10.606Z,2.00
2023-03-22T09:30:38.343Z,2.67
2023-03-22T09:33:06.655Z,2.45
2023-03-22T09:35:34.500Z,2.28
2023-03-22T09:38:03.751Z,2.58
2023-03-22T09:40:32.741Z,2.17
2023-03-22T09:43:07.228Z,2.67
2023-03-22T09:45:39.646Z,2.38
2023-03-22T09:48:41.375Z,2.10
2023-03-22T09:51:23.866Z,2.70
2023-03-22T09:53:50.987Z,2.30
2023-03-22T09:56:23.764Z,2.38
2023-03-22T09:58:55.581Z,2.67
2023-03-22T10:01:25.843Z,2.70
2023-03-22T10:03:55.849Z,3.03
2023-03-22T10:06:26.884Z,2.15
2023-03-22T10:09:03.774Z,2.45
2023-03-22T10:11:46.434Z,2.88
2023-03-22T10:14:27.759Z,3.33
2023-03-22T10:16:57.349Z,3.65
2023-03-22T10:19:31.420Z,3.25
2023-03-22T10:22:01.364Z,2.83
2023-03-22T10:24:36.581Z,2.90
2023-03-22T10:27:04.672Z,3.63
2023-03-22T10:29:39.410Z,3.25
2023-03-22T10:32:57.504Z,3.00
2023-03-22T10:35:26.063Z,3.08
2023-03-22T10:37:56.200Z,3.88
2023-03-22T10:40:30.665Z,2.80
2023-03-22T10:43:03.668Z,2.90
2023-03-22T10:45:34.783Z,2.90
2023-03-22T10:48:25.598Z,3.40
2023-03-22T10:50:54.375Z,3.08
2023-03-22T10:53:30.684Z,2.85
2023-03-22T10:55:59.305Z,2.90
2023-03-22T10:58:34.429Z,2.92
2023-03-22T11:01:10.956Z,2.97
2023-03-22T11:03:49.250Z,2.45
2023-03-22T11:06:20.932Z,2.47
2023-03-22T11:08:53.230Z,3.17
2023-03-22T11:11:25.578Z,2.67
2023-03-22T11:14:07.164Z,2.15
2023-03-22T11:16:45.643Z,2.72
2023-03-22T11:19:19.088Z,2.90
2023-03-22T11:21:46.272Z,2.58
2023-03-22T11:24:15.680Z,2.50
2023-03-22T11:26:44.891Z,2.45
2023-03-22T11:29:16.759Z,1.88
2023-03-22T11:31:55.818Z,3.58
2023-03-22T11:34:29.292Z,2.35
2023-03-22T11:37:01.075Z,2.13
2023-03-22T11:39:30.958Z,2.38
2023-03-22T11:42:06.315Z,2.58
2023-03-22T11:44:35.826Z,1.80
2023-03-22T11:47:04.487Z,2.05
2023-03-22T11:49:47.346Z,1.92
2023-03-22T11:52:24.663Z,3.20
2023-03-22T11:54:54.083Z,2.10
2023-03-22T11:57:27.465Z,2.45
2023-03-22T12:00:00.697Z,2.40
2023-03-22T12:02:31.687Z,2.63
2023-03-22T12:05:05.441Z,2.83
2023-03-22T12:07:35.513Z,2.33
2023-03-22T12:10:24.898Z,2.22
2023-03-22T12:13:14.194Z,2.60
2023-03-22T12:15:48.625Z,2.30
2023-03-22T12:18:36.197Z,2.47
2023-03-22T12:21:03.659Z,2.53
2023-03-22T12:23:35.278Z,2.17
2023-03-22T12:26:21.672Z,2.58
2023-03-22T12:29:00.717Z,2.47
2023-03-22T12:31:37.410Z,2.22
2023-03-22T12:34:16.262Z,2.53
2023-03-22T12:37:05.262Z,3.25
2023-03-22T12:39:39.182Z,3.90
2023-03-22T12:42:50.373Z,2.25
2023-03-22T12:45:26.893Z,3.03
2023-03-22T12:48:02.687Z,2.22
2023-03-22T12:50:38.724Z,2.38
2023-03-22T12:53:06.582Z,3.17
2023-03-22T12:55:39.454Z,3.60
2023-03-22T12:58:08.932Z,2.28
2023-03-22T13:00:45.757Z,3.03
2023-03-22T13:03:16.159Z,2.47
2023-03-22T13:05:45.827Z,2.90
2023-03-22T13:08:13.455Z,2.97
2023-03-22T13:10:49.667Z,2.83
2023-03-22T13:13:23.106Z,2.63
2023-03-22T13:16:08.473Z,2.53
2023-03-22T13:18:35.639Z,2.63
2023-03-22T13:21:21.214Z,2.95
2023-03-22T13:24:06.434Z,2.20
2023-03-22T13:26:51.612Z,2.85
2023-03-22T13:29:27.324Z,2.13
2023-03-22T13:31:57.949Z,2.90
2023-03-22T13:34:37.561Z,2.95
2023-03-22T13:37:22.680Z,2.70
2023-03-22T13:39:51.988Z,2.92
2023-03-22T13:42:22.400Z,2.92
2023-03-22T13:44:57.083Z,2.47
2023-03-22T13:47:32.540Z,2.63
2023-03-22T13:50:11.642Z,2.95
2023-03-22T13:52:53.027Z,2.63
2023-03-22T13:55:43.430Z,3.00
2023-03-22T13:58:36.489Z,2.72
2023-03-22T14:01:14.430Z,3.45
2023-03-22T14:03:44.056Z,2.90
2023-03-22T14:06:20.707Z,3.05
2023-03-22T14:08:51.802Z,2.92
2023-03-22T14:11:38.007Z,3.53
2023-03-22T14:14:16.187Z,3.38
2023-03-22T14:16:50.397Z,3.28
2023-03-22T14:19:21.935Z,3.42
